createdAt,value
2022-08-26T00:00:08.797Z,19.67
2022-08-26T00:03:01.081Z,19.64
2022-08-26T00:05:33.232Z,19.69
2022-08-26T00:08:04.294Z,19.63
2022-08-26T00:10:32.878Z,19.63
2022-08-26T00:13:00.540Z,19.66
2022-08-26T00:15:28.336Z,19.62
2022-08-26T00:17:56.500Z,19.68
2022-08-26T00:20:29.127Z,19.67
2022-08-26T00:22:57.755Z,19.67
2022-08-26T00:25:26.594Z,19.61
2022-08-26T00:27:54.314Z,19.58
2022-08-26T00:30:28.822Z,19.65
2022-08-26T00:32:58.851Z,19.67
2022-08-26T00:35:28.798Z,19.68
2022-08-26T00:37:57.367Z,19.70
2022-08-26T00:40:35.609Z,19.72
2022-08-26T00:43:07.119Z,19.71
2022-08-26T00:46:11.130Z,19.73
2022-08-26T00:48:42.432Z,19.78
2022-08-26T00:51:23.140Z,19.73
2022-08-26T00:54:10.791Z,19.76
2022-08-26T00:56:57.839Z,19.75
2022-08-26T00:59:32.910Z,19.80
2022-08-26T01:02:03.214Z,19.75
2022-08-26T01:04:35.297Z,19.78
2022-08-26T01:07:05.603Z,19.83
2022-08-26T01:09:33.969Z,19.84
2022-08-26T01:12:03.408Z,19.81
2022-08-26T01:14:35.186Z,19.86
2022-08-26T01:17:07.765Z,19.78
2022-08-26T01:19:49.717Z,19.81
2022-08-26T01:22:52.467Z,19.86
2022-08-26T01:25:22.558Z,19.79
2022-08-26T01:27:52.474Z,19.79
2022-08-26T01:30:21.166Z,19.80
2022-08-26T01:32:50.650Z,19.76
2022-08-26T01:35:20.387Z,19.80
2022-08-26T01:37:52.314Z,19.80
2022-08-26T01:40:43.782Z,19.79
2022-08-26T01:43:23.141Z,19.81
2022-08-26T01:45:54.759Z,19.86
2022-08-26T01:48:28.785Z,19.88
2022-08-26T01:50:57.683Z,19.87
2022-08-26T01:53:27.051Z,19.89
2022-08-26T01:56:00.526Z,19.86
2022-08-26T01:58:38.024Z,19.86
2022-08-26T02:01:07.205Z,19.90
2022-08-26T02:04:09.818Z,19.87
2022-08-26T02:10:47.741Z,19.90
2022-08-26T02:13:15.698Z,19.93
2022-08-26T02:15:44.793Z,19.96
2022-08-26T02:18:14.115Z,19.92
2022-08-26T02:20:42.153Z,19.90
2022-08-26T02:23:09.776Z,19.92
2022-08-26T02:26:10.448Z,19.90
2022-08-26T02:29:25.577Z,19.93
2022-08-26T02:31:55.762Z,19.92
2022-08-26T02:34:32.520Z,19.94
2022-08-26T02:37:06.079Z,19.88
2022-08-26T02:39:37.050Z,19.95
2022-08-26T02:42:06.230Z,19.96
2022-08-26T02:44:34.288Z,19.94
2022-08-26T02:47:02.475Z,19.94
2022-08-26T02:49:30.521Z,19.94
2022-08-26T02:52:01.860Z,19.98
2022-08-26T02:54:29.933Z,20.03
2022-08-26T02:57:09.943Z,19.98
2022-08-26T02:59:40.067Z,20.01
2022-08-26T03:02:08.719Z,20.01
2022-08-26T03:04:37.626Z,20.01
2022-08-26T03:07:07.698Z,20.05
2022-08-26T03:09:36.189Z,20.00
2022-08-26T03:12:04.751Z,19.97
2022-08-26T03:14:32.844Z,20.03
2022-08-26T03:17:00.540Z,20.02
2022-08-26T03:19:28.124Z,20.03
2022-08-26T03:21:58.051Z,19.99
2022-08-26T03:24:26.978Z,19.98
2022-08-26T03:26:54.972Z,20.00
2022-08-26T03:29:42.598Z,20.03
2022-08-26T03:32:11.086Z,20.01
2022-08-26T03:34:38.853Z,20.02
2022-08-26T03:37:06.592Z,20.01
2022-08-26T03:39:34.780Z,20.00
2022-08-26T03:42:02.687Z,20.03
2022-08-26T03:44:30.326Z,20.06
2022-08-26T03:46:58.251Z,20.03
2022-08-26T03:49:28.905Z,20.03
2022-08-26T03:51:56.694Z,20.06
2022-08-26T03:54:24.396Z,20.06
2022-08-26T03:56:52.273Z,20.06
2022-08-26T03:59:20.963Z,20.06
2022-08-26T04:01:48.675Z,20.12
2022-08-26T04:04:17.244Z,20.05
2022-08-26T04:06:45.032Z,20.09
2022-08-26T04:09:18.971Z,20.12
2022-08-26T04:11:50.669Z,20.13
2022-08-26T04:14:23.728Z,20.13
2022-08-26T04:16:53.365Z,20.12
2022-08-26T04:19:25.061Z,20.13
2022-08-26T04:21:54.180Z,20.18
2022-08-26T04:24:26.114Z,20.16
2022-08-26T04:26:56.671Z,20.12
2022-08-26T04:29:26.750Z,20.21
2022-08-26T04:31:56.314Z,20.16
2022-08-26T04:34:28.462Z,20.21
2022-08-26T04:36:58.357Z,20.17
2022-08-26T04:39:28.084Z,20.17
2022-08-26T04:41:57.811Z,20.22
2022-08-26T04:44:29.762Z,20.21
2022-08-26T04:46:58.833Z,20.25
2022-08-26T04:49:27.662Z,20.28
2022-08-26T04:51:55.267Z,20.31
2022-08-26T04:54:23.885Z,20.27
2022-08-26T04:56:52.940Z,20.35
2022-08-26T04:59:20.619Z,20.36
2022-08-26T05:01:56.462Z,20.39
2022-08-26T05:04:24.191Z,20.36
2022-08-26T05:06:57.810Z,20.40
2022-08-26T05:09:30.398Z,20.43
2022-08-26T05:11:58.377Z,20.44
2022-08-26T05:14:26.656Z,20.44
2022-08-26T05:16:54.725Z,20.55
2022-08-26T05:19:23.803Z,20.56
2022-08-26T05:21:51.403Z,20.53
2022-08-26T05:24:19.358Z,20.59
2022-08-26T05:26:48.133Z,20.57
2022-08-26T05:29:16.924Z,20.61
2022-08-26T05:31:44.667Z,20.69
2022-08-26T05:34:12.935Z,20.71
2022-08-26T05:36:40.527Z,20.75
2022-08-26T05:39:10.442Z,20.82
2022-08-26T05:41:41.789Z,20.87
2022-08-26T05:44:15.037Z,20.92
2022-08-26T05:46:45.340Z,20.92
2022-08-26T05:49:16.701Z,20.83
2022-08-26T05:51:47.637Z,20.89
2022-08-26T05:54:21.973Z,20.95
2022-08-26T05:56:53.650Z,21.05
2022-08-26T05:59:24.491Z,21.06
2022-08-26T06:01:54.992Z,21.14
2022-08-26T06:04:26.916Z,21.32
2022-08-26T06:06:55.900Z,21.38
2022-08-26T06:09:24.124Z,21.13
2022-08-26T06:11:52.017Z,21.22
2022-08-26T06:14:21.561Z,21.23
2022-08-26T06:16:49.834Z,21.26
2022-08-26T06:19:17.663Z,21.38
2022-08-26T06:21:47.984Z,21.44
2022-08-26T06:24:48.310Z,21.30
2022-08-26T06:27:32.938Z,21.31
2022-08-26T06:30:01.108Z,21.49
2022-08-26T06:32:29.051Z,21.53
2022-08-26T06:34:57.898Z,21.61
2022-08-26T06:37:25.760Z,21.81
2022-08-26T06:39:53.350Z,21.74
2022-08-26T06:42:22.532Z,21.61
2022-08-26T06:44:51.888Z,21.66
2022-08-26T06:47:19.697Z,21.83
2022-08-26T06:49:47.874Z,21.82
2022-08-26T06:52:22.509Z,21.88
2022-08-26T06:54:52.208Z,22.08
2022-08-26T06:57:20.745Z,21.81
2022-08-26T06:59:51.235Z,21.81
2022-08-26T07:02:19.776Z,21.55
2022-08-26T07:04:48.706Z,22.01
2022-08-26T07:07:19.417Z,22.47
2022-08-26T07:09:52.458Z,22.71
2022-08-26T07:12:21.310Z,22.50
2022-08-26T07:14:49.131Z,22.32
2022-08-26T07:17:17.623Z,22.70
2022-08-26T07:19:49.210Z,22.47
2022-08-26T07:22:17.305Z,22.75
2022-08-26T07:24:45.815Z,22.44
2022-08-26T07:27:16.659Z,22.46
2022-08-26T07:29:45.394Z,22.35
2022-08-26T07:32:15.596Z,22.38
2022-08-26T07:34:44.344Z,22.48
2022-08-26T07:37:12.386Z,22.62
2022-08-26T07:39:41.805Z,22.49
2022-08-26T07:42:15.017Z,22.81
2022-08-26T07:44:44.356Z,22.77
2022-08-26T07:47:24.994Z,22.58
2022-08-26T07:49:58.201Z,22.58
2022-08-26T07:52:30.271Z,22.75
2022-08-26T07:55:01.805Z,23.51
2022-08-26T07:57:30.612Z,24.26
2022-08-26T07:59:59.884Z,24.23
2022-08-26T08:02:29.372Z,24.72
2022-08-26T08:04:58.963Z,24.99
2022-08-26T08:07:45.136Z,24.92
2022-08-26T08:10:22.701Z,25.24
2022-08-26T08:12:53.702Z,25.28
2022-08-26T08:15:26.571Z,25.17
2022-08-26T08:17:58.831Z,25.30
2022-08-26T08:20:29.959Z,25.34
2022-08-26T08:22:58.057Z,25.13
2022-08-26T08:25:26.377Z,25.16
2022-08-26T08:27:54.304Z,25.50
2022-08-26T08:30:23.440Z,25.47
2022-08-26T08:32:53.211Z,25.03
2022-08-26T08:35:23.062Z,25.29
2022-08-26T08:37:54.466Z,25.14
2022-08-26T08:40:26.361Z,25.46
2022-08-26T08:43:07.570Z,25.40
2022-08-26T08:46:04.332Z,25.36
2022-08-26T08:48:39.601Z,25.42
2022-08-26T08:51:40.504Z,25.07
2022-08-26T08:54:10.651Z,25.17
2022-08-26T08:56:57.685Z,25.38
2022-08-26T08:59:34.850Z,25.48
2022-08-26T09:02:43.293Z,26.14
2022-08-26T09:05:25.789Z,25.90
2022-08-26T09:08:04.894Z,26.27
2022-08-26T09:10:46.270Z,26.19
2022-08-26T09:13:25.147Z,26.13
2022-08-26T09:16:19.161Z,26.24
2022-08-26T09:19:23.994Z,26.55
2022-08-26T09:21:57.699Z,26.86
2022-08-26T09:24:28.528Z,26.91
2022-08-26T09:26:59.318Z,26.68
2022-08-26T09:29:41.272Z,26.81
2022-08-26T09:32:25.182Z,26.79
2022-08-26T09:35:00.515Z,26.89
2022-08-26T09:40:35.330Z,27.00
2022-08-26T09:43:22.599Z,27.15
2022-08-26T09:45:59.086Z,27.91
2022-08-26T09:48:40.540Z,27.71
2022-08-26T09:51:23.483Z,27.68
2022-08-26T09:53:59.089Z,27.80
2022-08-26T09:56:33.876Z,27.44
2022-08-26T09:59:03.629Z,27.30
2022-08-26T10:01:42.885Z,27.37
2022-08-26T10:04:26.746Z,27.49
2022-08-26T10:07:05.574Z,27.53
2022-08-26T10:09:40.767Z,27.76
2022-08-26T10:12:21.515Z,27.54
2022-08-26T10:14:59.205Z,28.30
2022-08-26T10:17:40.329Z,28.04
2022-08-26T10:20:23.338Z,28.48
2022-08-26T10:23:01.023Z,28.94
2022-08-26T10:25:43.004Z,28.30
2022-08-26T10:28:23.534Z,28.68
2022-08-26T10:31:43.135Z,28.11
2022-08-26T10:34:14.166Z,28.90
2022-08-26T10:37:14.896Z,28.98
2022-08-26T10:40:28.169Z,29.09
2022-08-26T10:43:11.068Z,29.32
2022-08-26T10:45:52.113Z,28.86
2022-08-26T10:48:54.130Z,29.07
2022-08-26T10:51:30.298Z,28.86
2022-08-26T10:54:13.383Z,28.48
2022-08-26T10:56:59.503Z,29.40
2022-08-26T10:59:39.511Z,29.73
2022-08-26T11:02:24.658Z,29.25
2022-08-26T11:05:05.643Z,28.34
2022-08-26T11:07:39.319Z,28.71
2022-08-26T11:10:22.940Z,29.27
2022-08-26T11:13:07.178Z,29.70
2022-08-26T11:15:41.465Z,30.07
2022-08-26T11:18:32.739Z,29.43
2022-08-26T11:21:02.725Z,29.31
2022-08-26T11:23:33.612Z,29.45
2022-08-26T11:26:08.697Z,29.80
2022-08-26T11:28:48.767Z,29.74
2022-08-26T11:31:26.798Z,30.14
2022-08-26T11:34:10.263Z,30.09
2022-08-26T11:36:42.281Z,29.76
2022-08-26T11:39:57.103Z,30.30
2022-08-26T11:42:43.854Z,29.88
2022-08-26T11:45:47.053Z,30.04
2022-08-26T11:48:33.905Z,30.39
2022-08-26T11:51:21.400Z,29.89
2022-08-26T11:53:51.625Z,30.47
2022-08-26T11:56:32.512Z,30.17
2022-08-26T11:59:11.832Z,30.18
2022-08-26T12:01:48.846Z,30.52
2022-08-26T12:04:34.683Z,30.61
2022-08-26T12:07:08.611Z,30.81
2022-08-26T12:09:53.079Z,30.97
2022-08-26T12:12:34.728Z,30.53
2022-08-26T12:15:18.635Z,30.28
2022-08-26T12:17:53.372Z,30.55
2022-08-26T12:20:56.130Z,30.38
2022-08-26T12:23:47.448Z,30.63
2022-08-26T12:26:30.239Z,31.03
2022-08-26T12:29:12.943Z,30.18
2022-08-26T12:31:50.197Z,30.76
2022-08-26T12:34:19.465Z,29.86
2022-08-26T12:39:29.247Z,30.21
2022-08-26T12:42:01.340Z,30.74
2022-08-26T12:44:42.059Z,30.87
2022-08-26T12:47:40.091Z,30.29
2022-08-26T12:50:51.616Z,29.71
2022-08-26T12:53:33.599Z,29.98
2022-08-26T12:56:22.283Z,30.40
2022-08-26T12:59:23.331Z,30.75
2022-08-26T13:01:54.744Z,31.41
2022-08-26T13:04:43.779Z,30.64
2022-08-26T13:07:22.676Z,30.77
2022-08-26T13:09:57.087Z,31.11
2022-08-26T13:12:37.551Z,30.76
2022-08-26T13:15:06.978Z,30.81
2022-08-26T13:17:36.288Z,31.02
2022-08-26T13:20:05.613Z,31.26
2022-08-26T13:22:34.582Z,30.85
2022-08-26T13:25:02.598Z,30.95
2022-08-26T13:27:30.705Z,31.85
2022-08-26T13:29:59.226Z,31.09
2022-08-26T13:32:27.917Z,31.27
2022-08-26T13:34:57.700Z,31.80
2022-08-26T13:37:34.358Z,31.61
2022-08-26T13:40:07.630Z,31.43
2022-08-26T13:42:35.699Z,30.80
2022-08-26T13:45:04.814Z,30.93
2022-08-26T13:47:34.084Z,31.18
2022-08-26T13:50:02.442Z,30.88
2022-08-26T13:52:31.215Z,30.54
2022-08-26T13:55:00.863Z,31.17
2022-08-26T13:57:30.388Z,31.67
2022-08-26T13:59:59.516Z,32.02
2022-08-26T14:02:28.105Z,31.12
2022-08-26T14:04:56.632Z,30.40
2022-08-26T14:07:26.377Z,30.95
2022-08-26T14:09:54.107Z,31.06
2022-08-26T14:12:22.144Z,31.12
2022-08-26T14:14:50.499Z,30.25
2022-08-26T14:17:22.861Z,30.72
2022-08-26T14:19:52.002Z,30.48
2022-08-26T14:22:22.629Z,30.93
2022-08-26T14:24:51.622Z,30.95
2022-08-26T14:27:19.600Z,30.98
2022-08-26T14:29:47.561Z,30.60
2022-08-26T14:32:28.954Z,30.83
2022-08-26T14:34:56.945Z,30.72
2022-08-26T14:37:25.264Z,31.30
2022-08-26T14:39:53.209Z,30.74
2022-08-26T14:42:31.568Z,30.62
2022-08-26T14:45:05.189Z,30.35
2022-08-26T14:47:33.058Z,30.13
2022-08-26T14:50:01.387Z,30.58
2022-08-26T14:52:50.487Z,30.16
2022-08-26T14:55:18.574Z,30.41
2022-08-26T14:57:46.508Z,30.47
2022-08-26T15:00:15.119Z,30.85
2022-08-26T15:02:44.330Z,30.55
2022-08-26T15:05:12.673Z,30.63
2022-08-26T15:07:41.152Z,30.14
2022-08-26T15:10:14.232Z,30.25
2022-08-26T15:12:43.468Z,30.20
2022-08-26T15:15:16.745Z,29.95
2022-08-26T15:17:45.389Z,30.23
2022-08-26T15:20:14.279Z,30.71
2022-08-26T15:22:43.378Z,30.48
2022-08-26T15:25:11.912Z,30.46
2022-08-26T15:27:40.658Z,30.14
2022-08-26T15:30:13.433Z,30.03
2022-08-26T15:32:42.585Z,29.84
2022-08-26T15:35:10.707Z,30.48
2022-08-26T15:37:39.126Z,29.82
2022-08-26T15:40:09.689Z,29.76
2022-08-26T15:42:37.974Z,29.98
2022-08-26T15:45:06.198Z,30.13
2022-08-26T15:47:55.376Z,30.31
2022-08-26T15:50:22.584Z,29.56
2022-08-26T15:52:50.952Z,29.49
2022-08-26T15:55:19.340Z,29.59
2022-08-26T15:57:52.444Z,29.80
2022-08-26T16:00:20.859Z,29.43
2022-08-26T16:02:48.750Z,29.46
2022-08-26T16:05:18.247Z,28.97
2022-08-26T16:07:46.385Z,28.95
2022-08-26T16:10:14.487Z,29.27
2022-08-26T16:12:42.371Z,29.45
2022-08-26T16:15:11.074Z,28.90
2022-08-26T16:17:40.799Z,28.69
2022-08-26T16:20:09.665Z,29.06
2022-08-26T16:22:37.305Z,28.93
2022-08-26T16:25:07.483Z,28.68
2022-08-26T16:27:35.588Z,28.24
2022-08-26T16:30:06.539Z,28.47
2022-08-26T16:32:34.436Z,28.65
2022-08-26T16:35:02.536Z,28.45
2022-08-26T16:37:30.400Z,27.83
2022-08-26T16:39:58.354Z,27.98
2022-08-26T16:42:26.591Z,27.96
2022-08-26T16:44:55.049Z,27.76
2022-08-26T16:47:26.543Z,27.80
2022-08-26T16:49:55.175Z,28.10
2022-08-26T16:52:23.062Z,28.21
2022-08-26T16:54:53.184Z,28.09
2022-08-26T16:57:21.043Z,27.83
2022-08-26T16:59:48.723Z,27.82
2022-08-26T17:02:16.889Z,27.81
2022-08-26T17:04:47.142Z,27.80
2022-08-26T17:07:16.349Z,27.68
2022-08-26T17:09:44.281Z,26.78
2022-08-26T17:12:12.417Z,26.65
2022-08-26T17:14:40.283Z,26.37
2022-08-26T17:17:08.415Z,25.89
2022-08-26T17:19:40.929Z,25.55
2022-08-26T17:22:16.377Z,25.33
2022-08-26T17:24:44.361Z,25.50
2022-08-26T17:27:12.152Z,25.22
2022-08-26T17:29:40.564Z,25.37
2022-08-26T17:32:08.449Z,24.89
2022-08-26T17:34:36.693Z,24.56
2022-08-26T17:37:04.692Z,24.54
2022-08-26T17:39:32.738Z,24.39
2022-08-26T17:42:01.240Z,24.12
2022-08-26T17:44:29.964Z,23.16
2022-08-26T17:46:57.721Z,23.58
2022-08-26T17:49:25.456Z,23.45
2022-08-26T17:51:53.705Z,23.63
2022-08-26T17:54:21.679Z,23.39
2022-08-26T17:56:49.896Z,22.75
2022-08-26T17:59:18.336Z,22.95
2022-08-26T18:01:46.630Z,22.71
2022-08-26T18:04:15.253Z,22.85
2022-08-26T18:06:43.643Z,23.12
2022-08-26T18:09:12.334Z,23.11
2022-08-26T18:11:40.834Z,23.22
2022-08-26T18:14:09.261Z,23.15
2022-08-26T18:16:39.551Z,23.10
2022-08-26T18:19:08.131Z,22.98
2022-08-26T18:21:37.115Z,22.83
2022-08-26T18:24:05.747Z,22.56
2022-08-26T18:26:38.087Z,22.08
2022-08-26T18:29:08.368Z,22.08
2022-08-26T18:31:36.257Z,22.36
2022-08-26T18:34:04.536Z,22.20
2022-08-26T18:36:38.106Z,22.05
2022-08-26T18:39:08.821Z,22.07
2022-08-26T18:41:45.702Z,22.17
2022-08-26T18:44:17.896Z,22.37
2022-08-26T18:46:48.496Z,21.95
2022-08-26T18:49:20.330Z,21.94
2022-08-26T18:51:51.368Z,21.83
2022-08-26T18:56:53.596Z,21.80
2022-08-26T18:59:26.749Z,20.66
2022-08-26T19:01:58.365Z,21.35
2022-08-26T19:04:27.213Z,21.37
2022-08-26T19:06:57.918Z,20.95
2022-08-26T19:09:37.133Z,20.92
2022-08-26T19:12:07.403Z,21.24
2022-08-26T19:14:37.872Z,21.25
2022-08-26T19:17:07.105Z,21.03
2022-08-26T19:19:35.827Z,21.20
2022-08-26T19:22:06.041Z,21.40
2022-08-26T19:24:35.896Z,21.39
2022-08-26T19:27:04.884Z,21.23
2022-08-26T19:29:36.474Z,20.86
2022-08-26T19:32:06.445Z,21.17
2022-08-26T19:34:35.526Z,20.83
2022-08-26T19:37:07.329Z,20.81
2022-08-26T19:39:36.663Z,21.04
2022-08-26T19:42:07.126Z,21.03
2022-08-26T19:44:57.642Z,21.19
2022-08-26T19:47:27.037Z,21.09
2022-08-26T19:50:01.882Z,21.07
2022-08-26T19:52:32.604Z,20.93
2022-08-26T19:55:03.229Z,20.88
2022-08-26T19:57:31.773Z,20.72
2022-08-26T20:00:01.346Z,20.88
2022-08-26T20:02:31.225Z,20.85
2022-08-26T20:05:01.235Z,20.76
2022-08-26T20:07:32.800Z,20.53
2022-08-26T20:10:04.037Z,20.73
2022-08-26T20:12:35.725Z,20.90
2022-08-26T20:15:06.027Z,20.50
2022-08-26T20:17:36.291Z,20.51
2022-08-26T20:20:32.981Z,20.85
2022-08-26T20:23:04.755Z,20.59
2022-08-26T20:25:34.667Z,20.65
2022-08-26T20:28:10.879Z,20.82
2022-08-26T20:30:40.878Z,20.80
2022-08-26T20:33:09.815Z,20.49
2022-08-26T20:35:41.188Z,20.70
2022-08-26T20:38:11.071Z,20.36
2022-08-26T20:40:40.956Z,20.58
2022-08-26T20:43:10.032Z,20.41
2022-08-26T20:45:38.504Z,20.57
2022-08-26T20:48:07.380Z,20.50
2022-08-26T20:50:35.720Z,20.75
2022-08-26T20:53:04.106Z,20.67
2022-08-26T20:55:33.524Z,20.62
2022-08-26T20:58:01.548Z,20.55
2022-08-26T21:00:29.782Z,20.54
2022-08-26T21:02:58.270Z,20.53
2022-08-26T21:05:26.190Z,20.55
2022-08-26T21:07:54.044Z,20.10
2022-08-26T21:10:22.327Z,20.38
2022-08-26T21:12:51.276Z,19.89
2022-08-26T21:15:19.069Z,19.63
2022-08-26T21:17:47.051Z,20.10
2022-08-26T21:20:14.990Z,20.19
2022-08-26T21:22:42.895Z,19.97
2022-08-26T21:25:11.153Z,19.77
2022-08-26T21:27:39.223Z,19.39
2022-08-26T21:30:08.282Z,19.27
2022-08-26T21:32:36.364Z,19.34
2022-08-26T21:35:04.526Z,19.61
2022-08-26T21:37:32.749Z,19.57
2022-08-26T21:40:05.470Z,19.13
2022-08-26T21:42:35.760Z,19.61
2022-08-26T21:45:06.350Z,19.23
2022-08-26T21:47:34.453Z,19.59
2022-08-26T21:50:02.725Z,19.47
2022-08-26T21:52:30.956Z,19.22
2022-08-26T21:55:04.442Z,19.19
2022-08-26T21:57:37.352Z,19.06
2022-08-26T22:00:09.914Z,19.60
2022-08-26T22:02:38.961Z,19.63
2022-08-26T22:05:07.353Z,19.60
2022-08-26T22:07:36.367Z,19.04
2022-08-26T22:10:05.681Z,18.93
2022-08-26T22:12:33.949Z,18.66
2022-08-26T22:15:03.154Z,18.54
2022-08-26T22:17:31.662Z,18.95
2022-08-26T22:19:59.533Z,18.86
2022-08-26T22:22:28.718Z,18.79
2022-08-26T22:24:56.859Z,18.78
2022-08-26T22:27:24.693Z,18.97
2022-08-26T22:29:52.920Z,18.91
2022-08-26T22:32:21.352Z,18.91
2022-08-26T22:34:49.620Z,19.17
2022-08-26T22:37:17.772Z,19.08
2022-08-26T22:39:46.497Z,18.72
2022-08-26T22:42:14.430Z,18.54
2022-08-26T22:44:43.992Z,18.69
2022-08-26T22:47:11.858Z,18.95
2022-08-26T22:49:39.920Z,18.70
2022-08-26T22:52:07.708Z,18.79
2022-08-26T22:54:35.889Z,18.77
2022-08-26T22:57:04.065Z,18.61
2022-08-26T22:59:32.268Z,18.97
2022-08-26T23:02:00.794Z,18.97
2022-08-26T23:04:29.229Z,18.90
2022-08-26T23:06:57.071Z,18.67
2022-08-26T23:09:25.221Z,18.59
2022-08-26T23:11:56.064Z,19.00
2022-08-26T23:14:26.706Z,18.59
2022-08-26T23:16:58.447Z,18.60
2022-08-26T23:19:26.311Z,18.22
2022-08-26T23:21:53.996Z,18.10
2022-08-26T23:24:22.206Z,18.44
2022-08-26T23:26:50.143Z,18.33
2022-08-26T23:29:17.998Z,18.32
2022-08-26T23:31:46.100Z,18.48
2022-08-26T23:34:32.681Z,18.52
2022-08-26T23:37:01.449Z,18.44
2022-08-26T23:39:33.007Z,18.46
2022-08-26T23:42:01.851Z,18.17
2022-08-26T23:44:31.406Z,18.17
2022-08-26T23:46:59.852Z,18.40
2022-08-26T23:49:28.529Z,18.42
2022-08-26T23:52:35.202Z,18.21
2022-08-26T23:55:03.167Z,18.13
2022-08-26T23:57:31.439Z,18.12
2022-08-26T23:59:59.201Z,17.95
